sensor_id;sensor_type;location;lat;lon;timestamp;temperature;humidity
3051;DHT22;1535;51.098;6.414;2023-07-31T00:01:04;16.30;99.90
3051;DHT22;1535;51.098;6.414;2023-07-31T00:03:31;16.30;99.90
3051;DHT22;1535;51.098;6.414;2023-07-31T00:06:00;16.30;99.90
3051;DHT22;1535;51.098;6.414;2023-07-31T00:08:27;16.30;99.90
3051;DHT22;1535;51.098;6.414;2023-07-31T00:10:54;16.30;99.90
3051;DHT22;1535;51.098;6.414;2023-07-31T00:13:21;16.30;99.90
3051;DHT22;1535;51.098;6.414;2023-07-31T00:15:47;16.30;99.90
3051;DHT22;1535;51.098;6.414;2023-07-31T00:18:14;16.30;99.90
3051;DHT22;1535;51.098;6.414;2023-07-31T00:20:41;16.30;99.90
3051;DHT22;1535;51.098;6.414;2023-07-31T00:23:09;16.30;99.90
3051;DHT22;1535;51.098;6.414;2023-07-31T00:25:36;16.40;99.90
3051;DHT22;1535;51.098;6.414;2023-07-31T00:28:03;16.30;99.90
3051;DHT22;1535;51.098;6.414;2023-07-31T00:30:31;16.30;99.90
3051;DHT22;1535;51.098;6.414;2023-07-31T00:32:58;16.30;99.90
3051;DHT22;1535;51.098;6.414;2023-07-31T00:35:25;16.30;99.90
3051;DHT22;1535;51.098;6.414;2023-07-31T00:37:52;16.30;99.90
3051;DHT22;1535;51.098;6.414;2023-07-31T00:40:20;16.30;99.90
3051;DHT22;1535;51.098;6.414;2023-07-31T00:42:47;16.30;99.90
3051;DHT22;1535;51.098;6.414;2023-07-31T00:45:14;16.30;99.90
3051;DHT22;1535;51.098;6.414;2023-07-31T00:47:42;16.30;99.90
3051;DHT22;1535;51.098;6.414;2023-07-31T00:50:10;16.30;99.90
3051;DHT22;1535;51.098;6.414;2023-07-31T00:52:37;16.30;99.90
3051;DHT22;1535;51.098;6.414;2023-07-31T00:55:04;16.30;99.90
3051;DHT22;1535;51.098;6.414;2023-07-31T00:57:35;16.30;99.90
3051;DHT22;1535;51.098;6.414;2023-07-31T01:00:04;16.30;99.90
3051;DHT22;1535;51.098;6.414;2023-07-31T01:02:30;16.30;99.90
3051;DHT22;1535;51.098;6.414;2023-07-31T01:04:57;16.30;99.90
3051;DHT22;1535;51.098;6.414;2023-07-31T01:07:30;16.40;99.90
3051;DHT22;1535;51.098;6.414;2023-07-31T01:10:04;16.30;99.90
3051;DHT22;1535;51.098;6.414;2023-07-31T01:12:38;16.30;99.90
3051;DHT22;1535;51.098;6.414;2023-07-31T01:15:06;16.30;99.90
3051;DHT22;1535;51.098;6.414;2023-07-31T01:17:36;16.30;99.90
3051;DHT22;1535;51.098;6.414;2023-07-31T01:20:05;16.30;99.90
3051;DHT22;1535;51.098;6.414;2023-07-31T01:23:05;16.30;99.90
3051;DHT22;1535;51.098;6.414;2023-07-31T01:25:57;16.30;99.90
3051;DHT22;1535;51.098;6.414;2023-07-31T01:28:33;16.30;99.90
3051;DHT22;1535;51.098;6.414;2023-07-31T01:31:05;16.30;99.90
3051;DHT22;1535;51.098;6.414;2023-07-31T01:33:33;16.30;99.90
3051;DHT22;1535;51.098;6.414;2023-07-31T01:36:01;16.40;99.90
3051;DHT22;1535;51.098;6.414;2023-07-31T01:38:28;16.40;99.90
3051;DHT22;1535;51.098;6.414;2023-07-31T01:40:58;16.40;99.90
3051;DHT22;1535;51.098;6.414;2023-07-31T01:43:25;16.50;99.90
3051;DHT22;1535;51.098;6.414;2023-07-31T01:45:52;16.50;99.90
3051;DHT22;1535;51.098;6.414;2023-07-31T01:48:18;16.60;99.90
3051;DHT22;1535;51.098;6.414;2023-07-31T01:50:45;16.60;99.90
3051;DHT22;1535;51.098;6.414;2023-07-31T01:53:12;16.60;99.90
3051;DHT22;1535;51.098;6.414;2023-07-31T01:55:38;16.70;99.90
3051;DHT22;1535;51.098;6.414;2023-07-31T01:58:07;16.70;99.90
3051;DHT22;1535;51.098;6.414;2023-07-31T02:00:36;16.80;99.90
3051;DHT22;1535;51.098;6.414;2023-07-31T02:03:02;16.80;99.90
3051;DHT22;1535;51.098;6.414;2023-07-31T02:05:30;16.80;99.90
3051;DHT22;1535;51.098;6.414;2023-07-31T02:07:58;16.80;99.90
3051;DHT22;1535;51.098;6.414;2023-07-31T02:10:25;16.80;99.90
3051;DHT22;1535;51.098;6.414;2023-07-31T02:12:52;16.80;99.90
3051;DHT22;1535;51.098;6.414;2023-07-31T02:15:21;16.90;99.90
3051;DHT22;1535;51.098;6.414;2023-07-31T02:17:47;16.90;99.90
3051;DHT22;1535;51.098;6.414;2023-07-31T02:20:14;16.90;99.90
3051;DHT22;1535;51.098;6.414;2023-07-31T02:22:41;17.00;99.90
3051;DHT22;1535;51.098;6.414;2023-07-31T02:25:08;16.90;99.90
3051;DHT22;1535;51.098;6.414;2023-07-31T02:27:35;16.90;99.90
3051;DHT22;1535;51.098;6.414;2023-07-31T02:30:02;17.00;99.90
3051;DHT22;1535;51.098;6.414;2023-07-31T02:32:31;17.00;99.90
3051;DHT22;1535;51.098;6.414;2023-07-31T02:34:58;17.00;99.90
3051;DHT22;1535;51.098;6.414;2023-07-31T02:37:26;17.00;99.90
3051;DHT22;1535;51.098;6.414;2023-07-31T02:39:54;17.00;99.90
3051;DHT22;1535;51.098;6.414;2023-07-31T02:42:22;17.10;99.90
3051;DHT22;1535;51.098;6.414;2023-07-31T02:44:49;17.10;99.90
3051;DHT22;1535;51.098;6.414;2023-07-31T02:47:21;17.10;99.90
3051;DHT22;1535;51.098;6.414;2023-07-31T02:49:50;17.10;99.90
3051;DHT22;1535;51.098;6.414;2023-07-31T02:52:17;17.10;99.90
3051;DHT22;1535;51.098;6.414;2023-07-31T02:54:45;17.20;99.90
3051;DHT22;1535;51.098;6.414;2023-07-31T02:57:12;17.10;99.90
3051;DHT22;1535;51.098;6.414;2023-07-31T02:59:40;17.20;99.90
3051;DHT22;1535;51.098;6.414;2023-07-31T03:02:06;17.20;99.90
3051;DHT22;1535;51.098;6.414;2023-07-31T03:04:33;17.20;99.90
3051;DHT22;1535;51.098;6.414;2023-07-31T03:07:02;17.20;99.90
3051;DHT22;1535;51.098;6.414;2023-07-31T03:09:30;17.20;99.90
3051;DHT22;1535;51.098;6.414;2023-07-31T03:11:57;17.20;99.90
3051;DHT22;1535;51.098;6.414;2023-07-31T03:14:24;17.20;99.90
3051;DHT22;1535;51.098;6.414;2023-07-31T03:16:52;17.20;99.90
3051;DHT22;1535;51.098;6.414;2023-07-31T03:19:18;17.20;99.90
3051;DHT22;1535;51.098;6.414;2023-07-31T03:21:46;17.20;99.90
3051;DHT22;1535;51.098;6.414;2023-07-31T03:24:16;17.20;99.90
3051;DHT22;1535;51.098;6.414;2023-07-31T03:26:42;17.20;99.90
3051;DHT22;1535;51.098;6.414;2023-07-31T03:29:09;17.20;99.90
3051;DHT22;1535;51.098;6.414;2023-07-31T03:31:36;17.20;99.90
3051;DHT22;1535;51.098;6.414;2023-07-31T03:34:03;17.20;99.90
3051;DHT22;1535;51.098;6.414;2023-07-31T03:36:31;17.20;99.90
3051;DHT22;1535;51.098;6.414;2023-07-31T03:38:58;17.30;99.90
3051;DHT22;1535;51.098;6.414;2023-07-31T03:41:26;17.30;99.90
3051;DHT22;1535;51.098;6.414;2023-07-31T03:43:53;17.30;99.90
3051;DHT22;1535;51.098;6.414;2023-07-31T03:46:21;17.30;99.90
3051;DHT22;1535;51.098;6.414;2023-07-31T03:48:49;17.30;99.90
3051;DHT22;1535;51.098;6.414;2023-07-31T03:51:16;17.30;99.90
3051;DHT22;1535;51.098;6.414;2023-07-31T03:53:43;17.40;99.90
3051;DHT22;1535;51.098;6.414;2023-07-31T03:56:11;17.40;99.90
3051;DHT22;1535;51.098;6.414;2023-07-31T03:58:39;17.30;99.90
3051;DHT22;1535;51.098;6.414;2023-07-31T04:01:06;17.20;99.90
3051;DHT22;1535;51.098;6.414;2023-07-31T04:03:34;17.20;99.90
3051;DHT22;1535;51.098;6.414;2023-07-31T04:06:01;17.20;99.90
3051;DHT22;1535;51.098;6.414;2023-07-31T04:08:28;17.20;99.90
3051;DHT22;1535;51.098;6.414;2023-07-31T04:10:55;17.20;99.90
3051;DHT22;1535;51.098;6.414;2023-07-31T04:13:22;17.20;99.90
3051;DHT22;1535;51.098;6.414;2023-07-31T04:15:51;17.10;99.90
3051;DHT22;1535;51.098;6.414;2023-07-31T04:18:19;17.10;99.90
3051;DHT22;1535;51.098;6.414;2023-07-31T04:20:46;17.10;99.90
3051;DHT22;1535;51.098;6.414;2023-07-31T04:23:13;17.10;99.90
3051;DHT22;1535;51.098;6.414;2023-07-31T04:25:42;17.10;99.90
3051;DHT22;1535;51.098;6.414;2023-07-31T04:28:09;17.10;99.90
3051;DHT22;1535;51.098;6.414;2023-07-31T04:30:37;17.10;99.90
3051;DHT22;1535;51.098;6.414;2023-07-31T04:33:05;17.10;99.90
3051;DHT22;1535;51.098;6.414;2023-07-31T04:35:32;17.20;99.90
3051;DHT22;1535;51.098;6.414;2023-07-31T04:37:59;17.20;99.90
3051;DHT22;1535;51.098;6.414;2023-07-31T04:40:25;17.20;99.90
3051;DHT22;1535;51.098;6.414;2023-07-31T04:42:52;17.20;99.90
3051;DHT22;1535;51.098;6.414;2023-07-31T04:45:19;17.20;99.90
3051;DHT22;1535;51.098;6.414;2023-07-31T04:47:47;17.20;99.90
3051;DHT22;1535;51.098;6.414;2023-07-31T04:50:17;17.30;99.90
3051;DHT22;1535;51.098;6.414;2023-07-31T04:52:44;17.40;99.90
3051;DHT22;1535;51.098;6.414;2023-07-31T04:55:12;17.40;99.90
3051;DHT22;1535;51.098;6.414;2023-07-31T04:57:40;17.50;99.90
3051;DHT22;1535;51.098;6.414;2023-07-31T05:00:08;17.60;99.90
3051;DHT22;1535;51.098;6.414;2023-07-31T05:02:34;17.60;99.90
3051;DHT22;1535;51.098;6.414;2023-07-31T05:05:05;17.70;99.90
3051;DHT22;1535;51.098;6.414;2023-07-31T05:07:33;17.70;99.90
3051;DHT22;1535;51.098;6.414;2023-07-31T05:10:00;17.70;99.90
3051;DHT22;1535;51.098;6.414;2023-07-31T05:12:27;17.80;99.90
3051;DHT22;1535;51.098;6.414;2023-07-31T05:14:54;17.90;99.90
3051;DHT22;1535;51.098;6.414;2023-07-31T05:17:21;17.90;99.90
3051;DHT22;1535;51.098;6.414;2023-07-31T05:19:49;17.90;99.90
3051;DHT22;1535;51.098;6.414;2023-07-31T05:22:16;17.90;99.90
3051;DHT22;1535;51.098;6.414;2023-07-31T05:24:45;18.00;99.90
3051;DHT22;1535;51.098;6.414;2023-07-31T05:27:12;18.00;99.90
3051;DHT22;1535;51.098;6.414;2023-07-31T05:29:43;17.90;99.90
3051;DHT22;1535;51.098;6.414;2023-07-31T05:32:10;17.90;99.90
3051;DHT22;1535;51.098;6.414;2023-07-31T05:34:37;17.90;99.90
3051;DHT22;1535;51.098;6.414;2023-07-31T05:37:05;17.90;99.90
3051;DHT22;1535;51.098;6.414;2023-07-31T05:39:33;17.90;99.90
3051;DHT22;1535;51.098;6.414;2023-07-31T05:42:01;17.80;99.90
3051;DHT22;1535;51.098;6.414;2023-07-31T05:44:28;17.80;99.90
3051;DHT22;1535;51.098;6.414;2023-07-31T05:46:57;17.70;99.90
3051;DHT22;1535;51.098;6.414;2023-07-31T05:49:24;17.50;99.90
3051;DHT22;1535;51.098;6.414;2023-07-31T05:51:51;17.30;99.90
3051;DHT22;1535;51.098;6.414;2023-07-31T05:54:18;17.10;99.90
3051;DHT22;1535;51.098;6.414;2023-07-31T05:56:45;17.10;99.90
3051;DHT22;1535;51.098;6.414;2023-07-31T05:59:15;17.00;99.90
3051;DHT22;1535;51.098;6.414;2023-07-31T06:01:42;17.00;99.90
3051;DHT22;1535;51.098;6.414;2023-07-31T06:04:10;16.90;99.90
3051;DHT22;1535;51.098;6.414;2023-07-31T06:06:37;17.00;99.90
3051;DHT22;1535;51.098;6.414;2023-07-31T06:09:04;16.90;99.90
3051;DHT22;1535;51.098;6.414;2023-07-31T06:11:32;16.90;99.90
3051;DHT22;1535;51.098;6.414;2023-07-31T06:13:59;17.00;99.90
3051;DHT22;1535;51.098;6.414;2023-07-31T06:16:27;17.00;99.90
3051;DHT22;1535;51.098;6.414;2023-07-31T06:18:55;17.00;99.90
3051;DHT22;1535;51.098;6.414;2023-07-31T06:21:21;17.00;99.90
3051;DHT22;1535;51.098;6.414;2023-07-31T06:23:49;17.00;99.90
3051;DHT22;1535;51.098;6.414;2023-07-31T06:26:15;17.10;99.90
3051;DHT22;1535;51.098;6.414;2023-07-31T06:28:42;17.10;99.90
3051;DHT22;1535;51.098;6.414;2023-07-31T06:31:09;17.10;99.90
3051;DHT22;1535;51.098;6.414;2023-07-31T06:33:37;17.20;99.90
3051;DHT22;1535;51.098;6.414;2023-07-31T06:36:05;17.30;99.90
3051;DHT22;1535;51.098;6.414;2023-07-31T06:38:31;17.30;99.90
3051;DHT22;1535;51.098;6.414;2023-07-31T06:40:58;17.30;99.90
3051;DHT22;1535;51.098;6.414;2023-07-31T06:43:26;17.30;99.90
3051;DHT22;1535;51.098;6.414;2023-07-31T06:45:52;17.30;99.90
3051;DHT22;1535;51.098;6.414;2023-07-31T06:48:20;17.20;99.90
3051;DHT22;1535;51.098;6.414;2023-07-31T06:50:48;17.20;99.90
3051;DHT22;1535;51.098;6.414;2023-07-31T06:53:15;17.20;99.90
3051;DHT22;1535;51.098;6.414;2023-07-31T06:55:42;17.30;99.90
3051;DHT22;1535;51.098;6.414;2023-07-31T06:58:08;17.30;99.90
3051;DHT22;1535;51.098;6.414;2023-07-31T07:00:36;17.30;99.90
3051;DHT22;1535;51.098;6.414;2023-07-31T07:03:03;17.20;99.90
3051;DHT22;1535;51.098;6.414;2023-07-31T07:05:30;17.30;99.90
3051;DHT22;1535;51.098;6.414;2023-07-31T07:07:58;17.40;99.90
3051;DHT22;1535;51.098;6.414;2023-07-31T07:10:25;17.30;99.90
3051;DHT22;1535;51.098;6.414;2023-07-31T07:12:54;17.30;99.90
3051;DHT22;1535;51.098;6.414;2023-07-31T07:15:22;17.20;99.90
3051;DHT22;1535;51.098;6.414;2023-07-31T07:17:48;17.20;99.90
3051;DHT22;1535;51.098;6.414;2023-07-31T07:20:15;17.20;99.90
3051;DHT22;1535;51.098;6.414;2023-07-31T07:22:42;17.10;99.90
3051;DHT22;1535;51.098;6.414;2023-07-31T07:25:10;17.10;99.90
3051;DHT22;1535;51.098;6.414;2023-07-31T07:27:37;17.20;99.90
3051;DHT22;1535;51.098;6.414;2023-07-31T07:30:06;17.00;99.90
3051;DHT22;1535;51.098;6.414;2023-07-31T07:32:32;17.00;99.90
3051;DHT22;1535;51.098;6.414;2023-07-31T07:35:01;17.00;99.90
3051;DHT22;1535;51.098;6.414;2023-07-31T07:37:28;17.00;99.90
3051;DHT22;1535;51.098;6.414;2023-07-31T07:39:55;16.90;99.90
3051;DHT22;1535;51.098;6.414;2023-07-31T07:42:24;16.90;99.90
3051;DHT22;1535;51.098;6.414;2023-07-31T07:44:51;17.00;99.90
3051;DHT22;1535;51.098;6.414;2023-07-31T07:47:17;17.10;99.90
3051;DHT22;1535;51.098;6.414;2023-07-31T07:49:44;17.00;99.90
3051;DHT22;1535;51.098;6.414;2023-07-31T07:52:11;17.00;99.90
3051;DHT22;1535;51.098;6.414;2023-07-31T07:54:38;17.10;99.90
3051;DHT22;1535;51.098;6.414;2023-07-31T07:57:06;17.10;99.90
3051;DHT22;1535;51.098;6.414;2023-07-31T07:59:34;17.10;99.90
3051;DHT22;1535;51.098;6.414;2023-07-31T08:02:01;17.00;99.90
3051;DHT22;1535;51.098;6.414;2023-07-31T08:04:28;17.00;99.90
3051;DHT22;1535;51.098;6.414;2023-07-31T08:06:55;16.90;99.90
3051;DHT22;1535;51.098;6.414;2023-07-31T08:09:21;16.90;99.90
3051;DHT22;1535;51.098;6.414;2023-07-31T08:11:49;16.90;99.90
3051;DHT22;1535;51.098;6.414;2023-07-31T08:14:16;16.90;99.90
3051;DHT22;1535;51.098;6.414;2023-07-31T08:16:45;16.80;99.90
3051;DHT22;1535;51.098;6.414;2023-07-31T08:19:12;16.70;99.90
3051;DHT22;1535;51.098;6.414;2023-07-31T08:21:39;16.70;99.90
3051;DHT22;1535;51.098;6.414;2023-07-31T08:24:06;16.90;99.90
3051;DHT22;1535;51.098;6.414;2023-07-31T08:26:33;16.90;99.90
3051;DHT22;1535;51.098;6.414;2023-07-31T08:29:00;17.20;99.90
3051;DHT22;1535;51.098;6.414;2023-07-31T08:31:28;17.30;99.90
3051;DHT22;1535;51.098;6.414;2023-07-31T08:33:56;17.40;99.90
3051;DHT22;1535;51.098;6.414;2023-07-31T08:36:23;17.50;99.90
3051;DHT22;1535;51.098;6.414;2023-07-31T08:38:50;17.50;99.90
3051;DHT22;1535;51.098;6.414;2023-07-31T08:41:16;17.60;99.90
3051;DHT22;1535;51.098;6.414;2023-07-31T08:43:44;17.50;99.90
3051;DHT22;1535;51.098;6.414;2023-07-31T08:46:12;17.40;99.90
3051;DHT22;1535;51.098;6.414;2023-07-31T08:48:41;17.30;99.90
3051;DHT22;1535;51.098;6.414;2023-07-31T08:51:11;17.30;99.90
3051;DHT22;1535;51.098;6.414;2023-07-31T08:53:37;17.30;99.90
3051;DHT22;1535;51.098;6.414;2023-07-31T08:56:05;17.10;99.90
3051;DHT22;1535;51.098;6.414;2023-07-31T08:58:32;17.10;99.90
3051;DHT22;1535;51.098;6.414;2023-07-31T09:01:03;17.10;99.90
3051;DHT22;1535;51.098;6.414;2023-07-31T09:03:33;17.20;99.90
3051;DHT22;1535;51.098;6.414;2023-07-31T09:06:02;17.40;99.90
3051;DHT22;1535;51.098;6.414;2023-07-31T09:08:33;17.60;99.90
3051;DHT22;1535;51.098;6.414;2023-07-31T09:11:01;17.60;99.90
3051;DHT22;1535;51.098;6.414;2023-07-31T09:13:29;17.70;99.90
3051;DHT22;1535;51.098;6.414;2023-07-31T09:15:56;17.60;99.90
3051;DHT22;1535;51.098;6.414;2023-07-31T09:18:23;17.60;99.90
3051;DHT22;1535;51.098;6.414;2023-07-31T09:21:01;17.60;99.90
3051;DHT22;1535;51.098;6.414;2023-07-31T09:23:41;17.80;99.90
3051;DHT22;1535;51.098;6.414;2023-07-31T09:26:08;17.80;99.90
3051;DHT22;1535;51.098;6.414;2023-07-31T09:28:35;17.70;99.90
3051;DHT22;1535;51.098;6.414;2023-07-31T09:31:03;17.70;99.90
3051;DHT22;1535;51.098;6.414;2023-07-31T09:33:30;17.60;99.90
3051;DHT22;1535;51.098;6.414;2023-07-31T09:35:58;17.60;99.90
3051;DHT22;1535;51.098;6.414;2023-07-31T09:38:26;17.50;99.90
3051;DHT22;1535;51.098;6.414;2023-07-31T09:40:55;17.60;99.90
3051;DHT22;1535;51.098;6.414;2023-07-31T09:43:25;17.60;99.90
3051;DHT22;1535;51.098;6.414;2023-07-31T09:45:55;17.70;99.90
3051;DHT22;1535;51.098;6.414;2023-07-31T09:48:24;17.70;99.90
3051;DHT22;1535;51.098;6.414;2023-07-31T09:50:53;17.60;99.90
3051;DHT22;1535;51.098;6.414;2023-07-31T09:53:28;17.60;99.90
3051;DHT22;1535;51.098;6.414;2023-07-31T09:55:58;17.80;99.90
3051;DHT22;1535;51.098;6.414;2023-07-31T09:58:29;17.70;99.90
3051;DHT22;1535;51.098;6.414;2023-07-31T10:00:58;17.70;99.90
3051;DHT22;1535;51.098;6.414;2023-07-31T10:03:26;17.70;99.90
3051;DHT22;1535;51.098;6.414;2023-07-31T10:05:55;17.70;99.90
3051;DHT22;1535;51.098;6.414;2023-07-31T10:08:27;17.60;99.90
3051;DHT22;1535;51.098;6.414;2023-07-31T10:10:59;17.70;99.90
3051;DHT22;1535;51.098;6.414;2023-07-31T10:13:28;17.70;99.90
3051;DHT22;1535;51.098;6.414;2023-07-31T10:15:59;17.70;99.90
3051;DHT22;1535;51.098;6.414;2023-07-31T10:18:26;17.80;99.90
3051;DHT22;1535;51.098;6.414;2023-07-31T10:20:55;18.10;99.90
3051;DHT22;1535;51.098;6.414;2023-07-31T10:23:23;18.40;99.90
3051;DHT22;1535;51.098;6.414;2023-07-31T10:25:53;18.60;99.90
3051;DHT22;1535;51.098;6.414;2023-07-31T10:28:21;18.50;99.90
3051;DHT22;1535;51.098;6.414;2023-07-31T10:30:51;18.40;99.90
3051;DHT22;1535;51.098;6.414;2023-07-31T10:33:19;18.60;99.90
3051;DHT22;1535;51.098;6.414;2023-07-31T10:35:47;18.70;99.90
3051;DHT22;1535;51.098;6.414;2023-07-31T10:38:14;18.80;99.90
3051;DHT22;1535;51.098;6.414;2023-07-31T10:40:41;18.70;99.90
3051;DHT22;1535;51.098;6.414;2023-07-31T10:43:09;18.50;99.90
3051;DHT22;1535;51.098;6.414;2023-07-31T10:45:51;18.50;99.90
3051;DHT22;1535;51.098;6.414;2023-07-31T10:48:17;18.70;99.90
3051;DHT22;1535;51.098;6.414;2023-07-31T10:50:47;18.90;99.90
3051;DHT22;1535;51.098;6.414;2023-07-31T10:53:22;18.90;99.90
3051;DHT22;1535;51.098;6.414;2023-07-31T10:55:49;19.20;99.90
3051;DHT22;1535;51.098;6.414;2023-07-31T10:58:18;19.50;99.90
3051;DHT22;1535;51.098;6.414;2023-07-31T11:00:46;19.90;99.90
3051;DHT22;1535;51.098;6.414;2023-07-31T11:03:16;20.50;99.90
3051;DHT22;1535;51.098;6.414;2023-07-31T11:05:46;20.70;99.90
3051;DHT22;1535;51.098;6.414;2023-07-31T11:08:13;20.30;99.90
3051;DHT22;1535;51.098;6.414;2023-07-31T11:10:40;20.60;99.90
3051;DHT22;1535;51.098;6.414;2023-07-31T11:13:07;20.60;99.90
3051;DHT22;1535;51.098;6.414;2023-07-31T11:15:34;20.70;99.90
3051;DHT22;1535;51.098;6.414;2023-07-31T11:18:02;20.90;99.90
3051;DHT22;1535;51.098;6.414;2023-07-31T11:20:33;20.80;99.90
3051;DHT22;1535;51.098;6.414;2023-07-31T11:23:03;20.50;99.90
3051;DHT22;1535;51.098;6.414;2023-07-31T11:25:32;20.40;99.90
3051;DHT22;1535;51.098;6.414;2023-07-31T11:28:04;20.50;99.90
3051;DHT22;1535;51.098;6.414;2023-07-31T11:30:31;20.60;99.90
3051;DHT22;1535;51.098;6.414;2023-07-31T11:32:58;20.50;99.90
3051;DHT22;1535;51.098;6.414;2023-07-31T11:35:24;20.40;99.90
3051;DHT22;1535;51.098;6.414;2023-07-31T11:37:52;20.50;99.90
3051;DHT22;1535;51.098;6.414;2023-07-31T11:40:20;20.70;99.90
3051;DHT22;1535;51.098;6.414;2023-07-31T11:42:47;20.90;99.90
3051;DHT22;1535;51.098;6.414;2023-07-31T11:45:15;21.00;99.90
3051;DHT22;1535;51.098;6.414;2023-07-31T11:47:41;21.10;99.90
3051;DHT22;1535;51.098;6.414;2023-07-31T11:50:10;21.00;99.90
3051;DHT22;1535;51.098;6.414;2023-07-31T11:52:41;20.50;99.90
3051;DHT22;1535;51.098;6.414;2023-07-31T11:55:12;20.40;99.90
3051;DHT22;1535;51.098;6.414;2023-07-31T11:57:41;20.10;99.90
3051;DHT22;1535;51.098;6.414;2023-07-31T12:00:10;19.70;99.90
3051;DHT22;1535;51.098;6.414;2023-07-31T12:02:39;19.40;99.90
3051;DHT22;1535;51.098;6.414;2023-07-31T12:05:09;19.20;99.90
3051;DHT22;1535;51.098;6.414;2023-07-31T12:07:44;19.20;99.90
3051;DHT22;1535;51.098;6.414;2023-07-31T12:10:23;19.10;99.90
3051;DHT22;1535;51.098;6.414;2023-07-31T12:12:59;18.90;99.90
3051;DHT22;1535;51.098;6.414;2023-07-31T12:15:33;18.80;99.90
3051;DHT22;1535;51.098;6.414;2023-07-31T12:18:04;18.90;99.90
3051;DHT22;1535;51.098;6.414;2023-07-31T12:20:32;18.80;99.90
3051;DHT22;1535;51.098;6.414;2023-07-31T12:22:59;18.70;99.90
3051;DHT22;1535;51.098;6.414;2023-07-31T12:25:33;18.90;99.90
3051;DHT22;1535;51.098;6.414;2023-07-31T12:28:06;19.20;99.90
3051;DHT22;1535;51.098;6.414;2023-07-31T12:30:37;19.70;99.90
3051;DHT22;1535;51.098;6.414;2023-07-31T12:33:05;19.80;99.90
3051;DHT22;1535;51.098;6.414;2023-07-31T12:35:37;20.10;99.90
3051;DHT22;1535;51.098;6.414;2023-07-31T12:38:04;20.00;99.90
3051;DHT22;1535;51.098;6.414;2023-07-31T12:40:32;19.80;99.90
3051;DHT22;1535;51.098;6.414;2023-07-31T12:43:01;20.00;99.90
3051;DHT22;1535;51.098;6.414;2023-07-31T12:45:29;20.10;99.90
3051;DHT22;1535;51.098;6.414;2023-07-31T12:47:56;20.30;99.90
3051;DHT22;1535;51.098;6.414;2023-07-31T12:50:23;20.40;99.90
3051;DHT22;1535;51.098;6.414;2023-07-31T12:52:51;20.30;99.90
3051;DHT22;1535;51.098;6.414;2023-07-31T12:55:17;20.10;99.90
3051;DHT22;1535;51.098;6.414;2023-07-31T12:57:46;20.00;99.90
3051;DHT22;1535;51.098;6.414;2023-07-31T13:00:13;20.10;99.90
3051;DHT22;1535;51.098;6.414;2023-07-31T13:02:41;20.30;99.90
3051;DHT22;1535;51.098;6.414;2023-07-31T13:05:08;20.50;99.90
3051;DHT22;1535;51.098;6.414;2023-07-31T13:07:35;20.90;99.90
3051;DHT22;1535;51.098;6.414;2023-07-31T13:10:02;21.30;99.90
3051;DHT22;1535;51.098;6.414;2023-07-31T13:12:29;21.50;99.90
3051;DHT22;1535;51.098;6.414;2023-07-31T13:14:58;21.60;99.90
3051;DHT22;1535;51.098;6.414;2023-07-31T13:17:24;22.00;99.90
3051;DHT22;1535;51.098;6.414;2023-07-31T13:19:52;22.40;99.90
3051;DHT22;1535;51.098;6.414;2023-07-31T13:22:19;22.50;99.90
3051;DHT22;1535;51.098;6.414;2023-07-31T13:24:45;22.50;99.90
3051;DHT22;1535;51.098;6.414;2023-07-31T13:27:13;22.80;99.90
3051;DHT22;1535;51.098;6.414;2023-07-31T13:29:42;23.10;99.90
3051;DHT22;1535;51.098;6.414;2023-07-31T13:32:10;23.30;99.90
3051;DHT22;1535;51.098;6.414;2023-07-31T13:34:37;23.30;99.90
3051;DHT22;1535;51.098;6.414;2023-07-31T13:37:04;23.40;99.90
3051;DHT22;1535;51.098;6.414;2023-07-31T13:39:33;23.40;99.90
3051;DHT22;1535;51.098;6.414;2023-07-31T13:42:00;23.20;99.90
3051;DHT22;1535;51.098;6.414;2023-07-31T13:44:27;23.50;99.90
3051;DHT22;1535;51.098;6.414;2023-07-31T13:46:53;23.50;99.90
3051;DHT22;1535;51.098;6.414;2023-07-31T13:49:22;23.00;99.90
3051;DHT22;1535;51.098;6.414;2023-07-31T13:51:49;22.90;99.90
3051;DHT22;1535;51.098;6.414;2023-07-31T13:54:16;22.80;99.90
3051;DHT22;1535;51.098;6.414;2023-07-31T13:56:44;22.40;99.90
3051;DHT22;1535;51.098;6.414;2023-07-31T13:59:11;22.00;99.90
3051;DHT22;1535;51.098;6.414;2023-07-31T14:01:39;21.80;99.90
3051;DHT22;1535;51.098;6.414;2023-07-31T14:04:06;21.40;99.90
3051;DHT22;1535;51.098;6.414;2023-07-31T14:06:34;21.20;99.90
3051;DHT22;1535;51.098;6.414;2023-07-31T14:09:01;21.00;99.90
3051;DHT22;1535;51.098;6.414;2023-07-31T14:11:28;20.70;99.90
3051;DHT22;1535;51.098;6.414;2023-07-31T14:13:55;20.70;99.90
3051;DHT22;1535;51.098;6.414;2023-07-31T14:16:23;20.70;99.90
3051;DHT22;1535;51.098;6.414;2023-07-31T14:18:50;20.60;99.90
3051;DHT22;1535;51.098;6.414;2023-07-31T14:21:19;20.50;99.90
3051;DHT22;1535;51.098;6.414;2023-07-31T14:23:47;20.50;99.90
3051;DHT22;1535;51.098;6.414;2023-07-31T14:26:14;20.60;99.90
3051;DHT22;1535;51.098;6.414;2023-07-31T14:28:41;20.60;99.90
3051;DHT22;1535;51.098;6.414;2023-07-31T14:31:09;20.70;99.90
3051;DHT22;1535;51.098;6.414;2023-07-31T14:33:35;20.80;99.90
3051;DHT22;1535;51.098;6.414;2023-07-31T14:36:02;21.00;99.90
3051;DHT22;1535;51.098;6.414;2023-07-31T14:38:29;21.20;99.90
3051;DHT22;1535;51.098;6.414;2023-07-31T14:40:59;21.30;99.90
3051;DHT22;1535;51.098;6.414;2023-07-31T14:43:26;21.30;99.90
3051;DHT22;1535;51.098;6.414;2023-07-31T14:45:53;21.20;99.90
3051;DHT22;1535;51.098;6.414;2023-07-31T14:48:21;21.10;99.90
3051;DHT22;1535;51.098;6.414;2023-07-31T14:50:48;21.00;99.90
3051;DHT22;1535;51.098;6.414;2023-07-31T14:53:14;21.10;99.90
3051;DHT22;1535;51.098;6.414;2023-07-31T14:55:41;21.00;99.90
3051;DHT22;1535;51.098;6.414;2023-07-31T14:58:09;21.00;99.90
3051;DHT22;1535;51.098;6.414;2023-07-31T15:00:39;21.10;99.90
3051;DHT22;1535;51.098;6.414;2023-07-31T15:03:07;21.00;99.90
3051;DHT22;1535;51.098;6.414;2023-07-31T15:05:33;21.00;99.90
3051;DHT22;1535;51.098;6.414;2023-07-31T15:08:00;20.90;99.90
3051;DHT22;1535;51.098;6.414;2023-07-31T15:10:27;20.90;99.90
3051;DHT22;1535;51.098;6.414;2023-07-31T15:12:55;20.80;99.90
3051;DHT22;1535;51.098;6.414;2023-07-31T15:15:24;20.70;99.90
3051;DHT22;1535;51.098;6.414;2023-07-31T15:17:53;20.70;99.90
3051;DHT22;1535;51.098;6.414;2023-07-31T15:20:20;20.80;99.90
3051;DHT22;1535;51.098;6.414;2023-07-31T15:22:49;20.80;99.90
3051;DHT22;1535;51.098;6.414;2023-07-31T15:25:16;20.80;99.90
3051;DHT22;1535;51.098;6.414;2023-07-31T15:27:43;20.60;99.90
3051;DHT22;1535;51.098;6.414;2023-07-31T15:30:11;20.70;99.90
3051;DHT22;1535;51.098;6.414;2023-07-31T15:32:39;20.70;99.90
3051;DHT22;1535;51.098;6.414;2023-07-31T15:35:06;20.60;99.90
3051;DHT22;1535;51.098;6.414;2023-07-31T15:37:33;20.60;99.90
3051;DHT22;1535;51.098;6.414;2023-07-31T15:40:00;20.50;99.90
3051;DHT22;1535;51.098;6.414;2023-07-31T15:42:27;20.40;99.90
3051;DHT22;1535;51.098;6.414;2023-07-31T15:44:54;20.40;99.90
3051;DHT22;1535;51.098;6.414;2023-07-31T15:47:21;20.40;99.90
3051;DHT22;1535;51.098;6.414;2023-07-31T15:49:50;20.20;99.90
3051;DHT22;1535;51.098;6.414;2023-07-31T15:52:17;20.10;99.90
3051;DHT22;1535;51.098;6.414;2023-07-31T15:54:44;20.10;99.90
3051;DHT22;1535;51.098;6.414;2023-07-31T15:57:11;19.80;99.90
3051;DHT22;1535;51.098;6.414;2023-07-31T15:59:37;19.70;99.90
3051;DHT22;1535;51.098;6.414;2023-07-31T16:02:04;19.60;99.90
3051;DHT22;1535;51.098;6.414;2023-07-31T16:04:31;19.70;99.90
3051;DHT22;1535;51.098;6.414;2023-07-31T16:07:00;19.60;99.90